Waynesville, IL (61778)

2:13 PM CST on February 10, 2016 (GMT -0600)
APRSWXNET | | Change Station
CLOSE
Current Station
Personal Weather Station
Location: Waynesville, IL
Elevation: 744 ft
Nearby Weather Stations

Elev 744 ft 40.26 °N, 89.04 °W | Updated 37 minutes ago

Overcast
Overcast
19 °F
Feels Like 10 °F
N
7
Wind Variable Wind from WNW
Gusts 11.0 mph

Today
High -- | Low -- °F
--% Chance of Precip.
Yesterday
High -- | Low -- °F
Precip. -- in
Pressure 30.09 in
Visibility 10.0 miles
Clouds Overcast 8000 ft
Windchill 10 °F
Dew Point 7 °F
Humidity 60%
Rainfall in
Snow Depth Not available.
6:56 AM 5:25 PM
Waxing Crescent, 7% visible
METAR KAAA 101955Z AUTO 26007KT 210V290 10SM OVC080 M06/M14 A3009 RMK AO2 T10641143
Pressure 30.09 in
Visibility 10.0 miles
Clouds Overcast 8000 ft
Windchill 10 °F
Dew Point 7 °F
Humidity 60%
Rainfall in
Snow Depth Not available.
6:56 AM 5:25 PM
Waxing Crescent, 7% visible
METAR KAAA 101955Z AUTO 26007KT 210V290 10SM OVC080 M06/M14 A3009 RMK AO2 T10641143

10-Day Weather Forecast

Almanac

Astronomy

Feb. 10, 2016 Rise Set
Actual Time
Civil Twilight
Nautical Twilight
Astronomical Twilight
Moon
Length of Visible Light
Length of Day
Tomorrow will be .
, % of the Moon is Illuminated

Today's Extremes

State Highs State Lows

Community

WunderPhotos

Upload Photos

1,891,933 photos uploaded!

WunderBlog® & News

Nearby

Air Quality

  Air Quality AQ Index Pollutant
Not available.

Snow Depth

Station Depth Elevation

Earthquake Activity

City Distance Mag. Time & Date
Minimum magnitude displayed is 2.5.

Coastal Water Temperatures

Place Temperature

Stations

Nearby Weather Stations

Station Location Temp. Windchill Dew Point Humidity Wind Precip. Elev Updated Type
                   

Watches & Warnings

There are currently no watches in effect.